createdAt,value
2023-04-01T00:00:16.829Z,26.28
2023-04-01T00:01:16.874Z,28.97
2023-04-01T00:02:16.938Z,30.11
2023-04-01T00:03:17.074Z,31.75
2023-04-01T00:04:17.063Z,31.92
2023-04-01T00:05:16.992Z,32.47
2023-04-01T00:06:17.065Z,30.67
2023-04-01T00:07:17.039Z,32.40
2023-04-01T00:08:17.081Z,30.42
2023-04-01T00:09:17.110Z,30.42
2023-04-01T00:10:17.141Z,29.87
2023-04-01T00:11:17.175Z,30.27
2023-04-01T00:12:17.198Z,29.53
2023-04-01T00:13:17.291Z,28.16
2023-04-01T00:14:17.273Z,29.61
2023-04-01T00:15:17.269Z,30.14
2023-04-01T00:16:22.373Z,30.24
2023-04-01T00:17:18.925Z,30.42
2023-04-01T00:18:17.292Z,30.38
2023-04-01T00:19:17.331Z,30.08
2023-04-01T00:20:17.262Z,27.23
2023-04-01T00:21:17.249Z,25.93
2023-04-01T00:22:17.255Z,25.04
2023-04-01T00:23:17.273Z,26.33
2023-04-01T00:24:17.237Z,25.53
2023-04-01T00:25:17.277Z,25.84
2023-04-01T00:26:17.253Z,28.80
2023-04-01T00:27:17.220Z,29.43
2023-04-01T00:28:17.273Z,28.78
2023-04-01T00:29:17.224Z,31.13
2023-04-01T00:30:17.210Z,30.71
2023-04-01T00:31:17.286Z,26.57
2023-04-01T00:32:17.224Z,25.82
2023-04-01T00:33:17.216Z,26.39
2023-04-01T00:34:17.257Z,26.82
2023-04-01T00:35:17.247Z,27.83
2023-04-01T00:36:17.334Z,26.83
2023-04-01T00:37:17.297Z,25.39
2023-04-01T00:38:17.341Z,25.00
2023-04-01T00:39:17.379Z,25.00
2023-04-01T00:40:17.430Z,26.03
2023-04-01T00:41:17.461Z,25.29
2023-04-01T00:42:17.463Z,26.43
2023-04-01T00:43:17.547Z,27.12
2023-04-01T00:44:17.528Z,30.48
2023-04-01T00:45:17.609Z,33.41
2023-04-01T00:46:17.665Z,32.83
2023-04-01T00:47:17.644Z,34.00
2023-04-01T00:48:17.679Z,34.41
2023-04-01T00:49:17.723Z,35.10
2023-04-01T00:50:17.773Z,34.55
2023-04-01T00:51:17.767Z,34.28
2023-04-01T00:52:17.821Z,33.18
2023-04-01T00:53:17.846Z,32.07
2023-04-01T00:54:17.893Z,32.56
2023-04-01T00:55:17.980Z,31.99
2023-04-01T00:56:17.915Z,33.58
2023-04-01T00:57:18.014Z,35.15
2023-04-01T00:58:17.972Z,37.12
2023-04-01T00:59:18.040Z,37.04
2023-04-01T01:00:18.042Z,37.51
2023-04-01T01:01:18.163Z,38.90
2023-04-01T01:02:18.131Z,39.34
2023-04-01T01:03:18.187Z,38.01
2023-04-01T01:04:18.197Z,38.68
2023-04-01T01:05:18.232Z,38.09
2023-04-01T01:06:18.287Z,38.23
2023-04-01T01:07:18.285Z,35.95
2023-04-01T01:08:18.360Z,36.09
2023-04-01T01:09:18.359Z,34.07
2023-04-01T01:10:18.372Z,33.47
2023-04-01T01:11:18.394Z,30.25
2023-04-01T01:12:18.444Z,31.15
2023-04-01T01:13:18.452Z,30.93
2023-04-01T01:14:18.494Z,29.99
2023-04-01T01:15:18.497Z,30.21
2023-04-01T01:16:18.599Z,31.58
2023-04-01T01:17:18.552Z,30.77
2023-04-01T01:18:19.515Z,27.75
2023-04-01T01:19:18.633Z,27.50
2023-04-01T01:20:25.927Z,29.65
2023-04-01T01:21:19.674Z,29.87
2023-04-01T01:22:18.632Z,30.23
2023-04-01T01:23:18.615Z,30.64
2023-04-01T01:24:18.636Z,28.99
2023-04-01T01:25:18.609Z,26.98
2023-04-01T01:26:18.592Z,26.18
2023-04-01T01:27:18.613Z,28.26
2023-04-01T01:28:18.606Z,25.00
2023-04-01T01:29:18.610Z,28.93
2023-04-01T01:30:18.576Z,29.60
2023-04-01T01:31:18.603Z,29.30
2023-04-01T01:32:18.564Z,25.00
2023-04-01T01:33:18.587Z,25.49
2023-04-01T01:34:18.538Z,25.17
2023-04-01T01:35:18.579Z,25.03
2023-04-01T01:36:18.568Z,25.14
2023-04-01T01:37:18.593Z,28.22
2023-04-01T01:38:18.616Z,28.12
2023-04-01T01:39:18.627Z,27.23
2023-04-01T01:40:18.683Z,29.25
2023-04-01T01:41:18.735Z,27.92
2023-04-01T01:42:18.717Z,30.46
2023-04-01T01:43:18.800Z,30.54
2023-04-01T01:44:18.801Z,29.36
2023-04-01T01:45:18.889Z,28.29
2023-04-01T01:46:18.881Z,26.60
2023-04-01T01:47:18.876Z,26.62
2023-04-01T01:48:18.937Z,29.29
2023-04-01T01:49:18.978Z,28.82
2023-04-01T01:50:19.062Z,27.39
2023-04-01T01:51:19.034Z,29.69
2023-04-01T01:52:19.055Z,28.99
2023-04-01T01:53:19.097Z,28.63
2023-04-01T01:54:19.161Z,30.32
2023-04-01T01:55:19.304Z,29.88
2023-04-01T01:56:19.207Z,28.59
2023-04-01T01:57:19.303Z,30.30
2023-04-01T01:58:19.278Z,29.06
2023-04-01T01:59:19.317Z,32.83
2023-04-01T02:00:19.353Z,35.34
2023-04-01T02:01:19.410Z,34.76
2023-04-01T02:02:19.411Z,33.54
2023-04-01T02:03:19.443Z,34.61
2023-04-01T02:04:19.501Z,34.59
2023-04-01T02:05:19.557Z,35.01
2023-04-01T02:06:19.580Z,33.20
2023-04-01T02:07:19.611Z,27.20
2023-04-01T02:08:19.670Z,29.02
2023-04-01T02:09:19.674Z,28.70
2023-04-01T02:10:19.742Z,25.38
2023-04-01T02:11:19.760Z,25.00
2023-04-01T02:12:19.803Z,25.00
2023-04-01T02:13:19.882Z,27.18
2023-04-01T02:14:19.871Z,25.00
2023-04-01T02:15:19.920Z,25.37
2023-04-01T02:16:19.953Z,26.89
2023-04-01T02:17:20.023Z,27.37
2023-04-01T02:18:20.025Z,25.84
2023-04-01T02:19:20.127Z,25.00
2023-04-01T02:20:20.131Z,26.87
2023-04-01T02:21:20.133Z,33.35
2023-04-01T02:22:20.174Z,35.69
2023-04-01T02:23:20.237Z,34.38
2023-04-01T02:24:20.287Z,37.23
2023-04-01T02:25:20.357Z,36.09
2023-04-01T02:26:20.374Z,38.08
2023-04-01T02:27:20.398Z,39.07
2023-04-01T02:28:20.431Z,38.64
2023-04-01T02:29:20.461Z,37.41
2023-04-01T02:30:20.507Z,35.29
2023-04-01T02:31:20.565Z,36.43
2023-04-01T02:32:20.598Z,35.88
2023-04-01T02:33:20.609Z,36.71
2023-04-01T02:34:20.673Z,33.80
2023-04-01T02:35:20.723Z,26.30
2023-04-01T02:36:20.783Z,25.49
2023-04-01T02:37:20.835Z,26.03
2023-04-01T02:38:20.826Z,27.39
2023-04-01T02:39:20.917Z,26.37
2023-04-01T02:40:20.951Z,28.32
2023-04-01T02:41:20.950Z,31.21
2023-04-01T02:42:20.988Z,30.80
2023-04-01T02:43:21.084Z,34.71
2023-04-01T02:44:21.107Z,33.71
2023-04-01T02:45:21.157Z,33.59
2023-04-01T02:46:21.245Z,32.90
2023-04-01T02:47:21.315Z,32.92
2023-04-01T02:48:21.282Z,36.44
2023-04-01T02:49:21.323Z,38.21
2023-04-01T02:50:21.377Z,39.11
2023-04-01T02:51:21.456Z,39.30
2023-04-01T02:52:21.477Z,39.94
2023-04-01T02:53:21.496Z,40.47
2023-04-01T02:54:21.557Z,42.41
2023-04-01T02:55:21.572Z,40.09
2023-04-01T02:56:21.648Z,39.96
2023-04-01T02:57:21.721Z,40.41
2023-04-01T02:58:21.716Z,41.26
2023-04-01T02:59:21.776Z,40.93
2023-04-01T03:00:21.822Z,38.75
2023-04-01T03:01:21.973Z,38.49
2023-04-01T03:02:21.957Z,39.54
2023-04-01T03:03:21.980Z,35.39
2023-04-01T03:04:22.010Z,36.27
2023-04-01T03:05:22.052Z,35.31
2023-04-01T03:06:22.096Z,31.26
2023-04-01T03:07:22.153Z,30.74
2023-04-01T03:08:22.206Z,28.76
2023-04-01T03:09:22.254Z,30.54
2023-04-01T03:10:22.304Z,27.40
2023-04-01T03:11:22.341Z,28.28
2023-04-01T03:12:22.422Z,29.91
2023-04-01T03:13:22.465Z,30.75
2023-04-01T03:14:22.523Z,32.40
2023-04-01T03:15:22.548Z,31.55
2023-04-01T03:16:22.688Z,31.79
2023-04-01T03:17:22.661Z,31.24
2023-04-01T03:18:22.681Z,31.91
2023-04-01T03:19:22.753Z,31.15
2023-04-01T03:20:22.778Z,30.25
2023-04-01T03:21:22.853Z,30.72
2023-04-01T03:22:22.913Z,28.65
2023-04-01T03:23:22.962Z,29.71
2023-04-01T03:24:23.025Z,30.33
2023-04-01T03:25:23.044Z,29.45
2023-04-01T03:26:23.090Z,28.70
2023-04-01T03:27:23.162Z,30.12
2023-04-01T03:28:23.217Z,32.12
2023-04-01T03:29:23.356Z,34.57
2023-04-01T03:30:23.338Z,36.21
2023-04-01T03:31:23.917Z,37.72
2023-04-01T03:32:23.416Z,37.45
2023-04-01T03:33:23.442Z,37.89
2023-04-01T03:34:23.476Z,38.93
2023-04-01T03:35:23.513Z,36.22
2023-04-01T03:36:23.681Z,37.22
2023-04-01T03:37:23.636Z,38.18
2023-04-01T03:38:23.691Z,38.21
2023-04-01T03:39:23.718Z,37.58
2023-04-01T03:40:23.803Z,37.88
2023-04-01T03:41:23.843Z,36.96
2023-04-01T03:42:23.881Z,37.93
2023-04-01T03:43:23.939Z,37.87
2023-04-01T03:44:23.995Z,40.48
2023-04-01T03:45:24.012Z,40.24
2023-04-01T03:46:24.144Z,38.78
2023-04-01T03:47:24.157Z,38.39
2023-04-01T03:48:24.142Z,35.88
2023-04-01T03:49:24.193Z,37.41
2023-04-01T03:50:24.264Z,35.74
2023-04-01T03:51:24.284Z,33.81
2023-04-01T03:52:24.353Z,34.05
2023-04-01T03:53:24.401Z,35.34
2023-04-01T03:54:24.443Z,35.99
2023-04-01T03:55:24.470Z,36.89
2023-04-01T03:56:24.526Z,34.99
2023-04-01T03:57:24.644Z,34.53
2023-04-01T03:58:24.624Z,32.60
2023-04-01T03:59:24.633Z,33.25
2023-04-01T04:00:24.716Z,32.77
2023-04-01T04:01:24.709Z,36.69
2023-04-01T04:02:24.829Z,35.33
2023-04-01T04:03:24.952Z,36.30
2023-04-01T04:04:24.927Z,34.28
2023-04-01T04:05:24.893Z,36.80
2023-04-01T04:06:24.924Z,36.60
2023-04-01T04:07:24.957Z,35.06
2023-04-01T04:08:25.016Z,35.28
2023-04-01T04:09:25.057Z,33.41
2023-04-01T04:10:25.053Z,35.02
2023-04-01T04:11:25.151Z,34.29
2023-04-01T04:12:25.146Z,35.87
2023-04-01T04:13:25.216Z,33.37
2023-04-01T04:14:25.256Z,31.12
2023-04-01T04:15:25.271Z,31.86
2023-04-01T04:16:25.337Z,33.19
2023-04-01T04:17:25.355Z,32.54
2023-04-01T04:18:25.377Z,33.41
2023-04-01T04:19:25.407Z,32.48
2023-04-01T04:20:25.471Z,32.44
2023-04-01T04:21:25.541Z,33.69
2023-04-01T04:22:25.580Z,35.75
2023-04-01T04:23:25.637Z,33.83
2023-04-01T04:24:25.663Z,34.01
2023-04-01T04:25:25.684Z,32.77
2023-04-01T04:26:25.733Z,31.38
2023-04-01T04:27:25.789Z,32.31
2023-04-01T04:28:25.862Z,31.65
2023-04-01T04:29:25.899Z,31.16
2023-04-01T04:30:25.939Z,30.64
2023-04-01T04:31:26.049Z,30.07
2023-04-01T04:32:26.076Z,30.73
2023-04-01T04:33:26.099Z,28.81
2023-04-01T04:34:26.190Z,29.86
2023-04-01T04:35:26.223Z,28.19
2023-04-01T04:36:26.262Z,27.94
2023-04-01T04:37:26.332Z,28.84
2023-04-01T04:38:26.392Z,29.85
2023-04-01T04:39:26.456Z,26.16
2023-04-01T04:40:26.471Z,26.76
2023-04-01T04:41:26.503Z,27.79
2023-04-01T04:42:26.580Z,29.00
2023-04-01T04:43:26.669Z,30.95
2023-04-01T04:44:26.699Z,28.19
2023-04-01T04:45:26.753Z,27.47
2023-04-01T04:46:26.860Z,26.05
2023-04-01T04:47:26.870Z,27.42
2023-04-01T04:48:26.919Z,26.22
2023-04-01T04:49:26.987Z,26.98
2023-04-01T04:50:27.017Z,26.41
2023-04-01T04:51:27.097Z,26.23
2023-04-01T04:52:27.138Z,25.52
2023-04-01T04:53:27.251Z,28.44
2023-04-01T04:54:27.255Z,27.99
2023-04-01T04:55:27.316Z,28.26
2023-04-01T04:56:27.357Z,28.42
2023-04-01T04:57:27.522Z,28.37
2023-04-01T04:58:27.490Z,27.55
2023-04-01T04:59:27.618Z,26.43
2023-04-01T05:00:27.617Z,28.47
2023-04-01T05:01:27.673Z,25.44
2023-04-01T05:02:27.748Z,28.33
2023-04-01T05:03:27.804Z,28.63
2023-04-01T05:04:27.810Z,27.57
2023-04-01T05:05:27.873Z,29.33
2023-04-01T05:06:27.918Z,30.25
2023-04-01T05:07:28.016Z,27.87
2023-04-01T05:08:28.071Z,28.40
2023-04-01T05:09:28.132Z,27.53
2023-04-01T05:10:28.192Z,26.97
2023-04-01T05:11:28.274Z,28.79
2023-04-01T05:12:28.301Z,31.78
2023-04-01T05:13:28.366Z,29.89
2023-04-01T05:14:28.427Z,31.83
2023-04-01T05:15:28.505Z,29.29
2023-04-01T05:16:28.555Z,30.57
2023-04-01T05:17:28.608Z,30.65
2023-04-01T05:18:28.672Z,29.83
2023-04-01T05:19:28.725Z,34.12
2023-04-01T05:20:28.790Z,32.31
2023-04-01T05:21:28.863Z,32.72
2023-04-01T05:22:28.935Z,31.84
2023-04-01T05:23:28.955Z,32.46
2023-04-01T05:24:29.013Z,31.68
2023-04-01T05:25:29.080Z,32.55
2023-04-01T05:26:29.154Z,29.45
2023-04-01T05:27:29.195Z,29.94
2023-04-01T05:28:29.244Z,30.68
2023-04-01T05:29:29.327Z,33.71
2023-04-01T05:30:29.337Z,33.46
2023-04-01T05:31:29.450Z,31.38
2023-04-01T05:32:30.057Z,32.78
2023-04-01T05:33:29.506Z,32.17
2023-04-01T05:34:29.550Z,32.31
2023-04-01T05:35:29.665Z,31.00
2023-04-01T05:36:29.680Z,33.05
2023-04-01T05:37:29.731Z,32.78
2023-04-01T05:38:29.798Z,29.86
2023-04-01T05:39:29.871Z,30.72
2023-04-01T05:40:29.927Z,29.92
2023-04-01T05:41:29.976Z,31.06
2023-04-01T05:42:30.022Z,30.83
2023-04-01T05:43:30.075Z,31.49
2023-04-01T05:44:30.138Z,31.20
2023-04-01T05:45:30.194Z,29.38
2023-04-01T05:46:30.303Z,29.18
2023-04-01T05:47:30.304Z,29.24
2023-04-01T05:48:30.401Z,32.96
2023-04-01T05:49:30.442Z,32.08
2023-04-01T05:50:30.465Z,29.60
2023-04-01T05:51:30.546Z,30.22
2023-04-01T05:52:30.587Z,29.39
2023-04-01T05:53:30.669Z,27.88
2023-04-01T05:54:30.724Z,30.04
2023-04-01T05:55:30.788Z,28.91
2023-04-01T05:56:30.813Z,28.39
2023-04-01T05:57:30.921Z,28.60
2023-04-01T05:58:30.934Z,30.23
2023-04-01T05:59:31.005Z,27.08
2023-04-01T06:00:31.082Z,27.56
2023-04-01T06:01:31.122Z,29.39
2023-04-01T06:02:31.287Z,28.17
2023-04-01T06:03:31.359Z,27.94
2023-04-01T06:04:31.350Z,27.25
2023-04-01T06:05:31.479Z,28.97
2023-04-01T06:06:31.386Z,27.61
2023-04-01T06:07:31.436Z,27.90
2023-04-01T06:08:31.494Z,27.44
2023-04-01T06:09:31.526Z,28.04
2023-04-01T06:10:31.569Z,26.79
2023-04-01T06:11:31.668Z,26.91
2023-04-01T06:12:31.714Z,27.11
2023-04-01T06:13:31.791Z,26.73
2023-04-01T06:14:31.837Z,27.01
2023-04-01T06:15:32.129Z,27.02
2023-04-01T06:16:31.954Z,27.60
2023-04-01T06:17:31.950Z,26.02
2023-04-01T06:18:32.028Z,28.16
2023-04-01T06:19:32.071Z,27.29
2023-04-01T06:20:32.129Z,27.44
2023-04-01T06:21:32.197Z,25.88
2023-04-01T06:22:32.240Z,26.73
2023-04-01T06:23:32.305Z,28.10
2023-04-01T06:24:32.345Z,26.46
2023-04-01T06:25:32.638Z,27.11
2023-04-01T06:26:32.460Z,27.08
2023-04-01T06:27:32.493Z,27.26
2023-04-01T06:28:32.579Z,27.30
2023-04-01T06:29:32.610Z,26.42
2023-04-01T06:30:32.673Z,25.80
2023-04-01T06:31:32.775Z,26.88
2023-04-01T06:32:32.778Z,26.79
2023-04-01T06:33:32.852Z,25.98
2023-04-01T06:34:33.085Z,25.21
2023-04-01T06:35:33.205Z,27.13
2023-04-01T06:36:33.024Z,26.12
2023-04-01T06:37:33.054Z,25.29
2023-04-01T06:38:33.105Z,26.14
2023-04-01T06:39:34.166Z,25.44
2023-04-01T06:40:33.227Z,27.97
2023-04-01T06:41:33.290Z,27.01
2023-04-01T06:42:33.356Z,26.40
2023-04-01T06:43:33.392Z,27.14
2023-04-01T06:44:33.466Z,28.97
2023-04-01T06:45:33.699Z,32.11
2023-04-01T06:46:33.569Z,32.58
2023-04-01T06:47:33.633Z,32.64
2023-04-01T06:48:33.660Z,33.03
2023-04-01T06:49:33.705Z,33.46
2023-04-01T06:50:33.772Z,33.36
2023-04-01T06:51:33.849Z,33.96
2023-04-01T06:52:33.902Z,34.53
2023-04-01T06:53:33.909Z,34.50
2023-04-01T06:54:33.972Z,34.01
2023-04-01T06:55:34.316Z,34.68
2023-04-01T06:56:34.076Z,36.31
2023-04-01T06:57:34.149Z,36.30
2023-04-01T06:58:34.187Z,36.65
2023-04-01T06:59:34.235Z,37.88
2023-04-01T07:00:34.281Z,37.93
2023-04-01T07:01:34.412Z,37.87
2023-04-01T07:02:34.417Z,37.08
2023-04-01T07:03:34.426Z,38.03
2023-04-01T07:04:34.492Z,37.98
2023-04-01T07:05:34.670Z,36.63
2023-04-01T07:06:34.521Z,38.77
2023-04-01T07:07:34.550Z,37.05
2023-04-01T07:08:34.609Z,37.18
2023-04-01T07:09:34.625Z,37.16
2023-04-01T07:10:35.006Z,38.11
2023-04-01T07:11:34.692Z,39.63
2023-04-01T07:12:34.744Z,37.81
2023-04-01T07:13:34.787Z,37.75
2023-04-01T07:14:34.823Z,36.30
2023-04-01T07:15:35.108Z,36.00
2023-04-01T07:16:34.938Z,35.19
2023-04-01T07:17:34.960Z,36.48
2023-04-01T07:18:34.959Z,36.99
2023-04-01T07:19:34.995Z,39.58
2023-04-01T07:20:34.961Z,38.95
2023-04-01T07:21:34.948Z,39.99
2023-04-01T07:22:34.930Z,41.40
2023-04-01T07:23:34.933Z,38.00
2023-04-01T07:24:34.979Z,38.20
2023-04-01T07:25:35.275Z,37.70
2023-04-01T07:26:34.945Z,38.42
2023-04-01T07:27:34.918Z,38.67
2023-04-01T07:28:35.038Z,37.96
2023-04-01T07:29:34.920Z,39.83
2023-04-01T07:30:34.926Z,37.95
2023-04-01T07:31:34.940Z,39.09
2023-04-01T07:32:36.182Z,39.16
2023-04-01T07:33:34.899Z,40.24
2023-04-01T07:34:34.863Z,39.55
2023-04-01T07:35:35.163Z,38.32
2023-04-01T07:36:34.854Z,39.09
2023-04-01T07:37:34.842Z,38.09
2023-04-01T07:38:34.896Z,37.27
2023-04-01T07:39:35.071Z,38.97
2023-04-01T07:40:34.836Z,38.44
2023-04-01T07:41:34.825Z,36.35
2023-04-01T07:42:34.835Z,36.70
2023-04-01T07:43:34.832Z,37.23
2023-04-01T07:44:34.819Z,35.68
2023-04-01T07:45:35.175Z,39.14
2023-04-01T07:46:34.861Z,37.49
2023-04-01T07:47:34.818Z,36.96
2023-04-01T07:48:34.836Z,34.01
2023-04-01T07:49:34.784Z,37.31
2023-04-01T07:50:34.747Z,36.59
2023-04-01T07:51:34.771Z,38.75
2023-04-01T07:52:34.746Z,39.36
2023-04-01T07:53:34.755Z,39.89
2023-04-01T07:54:34.810Z,38.73
2023-04-01T07:55:35.163Z,39.26
2023-04-01T07:56:34.869Z,38.83
2023-04-01T07:57:34.875Z,36.48
2023-04-01T07:58:34.938Z,38.47
2023-04-01T07:59:34.981Z,37.55
2023-04-01T08:00:34.998Z,39.04
2023-04-01T08:01:35.017Z,38.32
2023-04-01T08:02:35.126Z,37.20
2023-04-01T08:03:35.185Z,37.75
2023-04-01T08:04:35.164Z,36.09
2023-04-01T08:05:35.564Z,37.50
2023-04-01T08:06:35.170Z,37.46
2023-04-01T08:07:35.212Z,36.88
2023-04-01T08:08:35.224Z,38.70
2023-04-01T08:09:35.282Z,38.75
2023-04-01T08:10:35.279Z,36.51
2023-04-01T08:11:35.351Z,35.53
2023-04-01T08:12:35.338Z,34.41
2023-04-01T08:13:35.479Z,34.02
2023-04-01T08:14:35.413Z,32.44
2023-04-01T08:15:35.636Z,33.98
2023-04-01T08:16:35.594Z,36.01
2023-04-01T08:17:35.589Z,35.00
2023-04-01T08:18:35.522Z,34.36
2023-04-01T08:19:35.587Z,33.26
2023-04-01T08:20:35.593Z,33.79
2023-04-01T08:21:35.611Z,33.30
2023-04-01T08:22:35.651Z,33.96
2023-04-01T08:23:35.688Z,35.70
2023-04-01T08:24:46.447Z,35.88
2023-04-01T08:25:36.730Z,36.22
2023-04-01T08:26:35.702Z,36.37
2023-04-01T08:27:35.708Z,36.50
2023-04-01T08:28:35.717Z,37.19
2023-04-01T08:29:35.722Z,37.10
2023-04-01T08:30:35.682Z,33.16
2023-04-01T08:31:36.626Z,32.19
2023-04-01T08:32:35.690Z,32.77
2023-04-01T08:33:35.647Z,34.24
2023-04-01T08:34:35.672Z,34.11
2023-04-01T08:35:38.313Z,32.54
2023-04-01T08:36:35.677Z,35.70
2023-04-01T08:37:35.626Z,31.63
2023-04-01T08:38:35.639Z,32.88
2023-04-01T08:39:35.646Z,29.78
2023-04-01T08:40:35.643Z,28.46
2023-04-01T08:41:35.636Z,26.81
2023-04-01T08:42:35.614Z,30.29
2023-04-01T08:43:35.617Z,28.92
2023-04-01T08:44:35.621Z,28.01
2023-04-01T08:45:35.851Z,28.34
2023-04-01T08:46:35.595Z,29.43
2023-04-01T08:47:35.584Z,28.05
2023-04-01T08:48:35.599Z,31.32
2023-04-01T08:49:35.593Z,30.60
2023-04-01T08:50:35.540Z,28.80
2023-04-01T08:51:35.567Z,28.11
2023-04-01T08:52:35.537Z,26.52
2023-04-01T08:53:35.535Z,25.86
2023-04-01T08:54:35.553Z,29.59
2023-04-01T08:55:35.772Z,28.71
2023-04-01T08:56:35.510Z,30.59
2023-04-01T08:57:35.563Z,33.60
2023-04-01T08:58:35.512Z,35.42
2023-04-01T08:59:35.512Z,34.83
2023-04-01T09:00:35.532Z,30.15
2023-04-01T09:01:35.506Z,27.04
2023-04-01T09:02:35.557Z,25.00
2023-04-01T09:03:35.566Z,25.88
2023-04-01T09:04:35.499Z,27.10
2023-04-01T09:05:35.546Z,27.50
2023-04-01T09:06:35.462Z,31.00
2023-04-01T09:07:35.443Z,33.88
2023-04-01T09:08:35.476Z,25.23
2023-04-01T09:09:35.488Z,25.44
2023-04-01T09:10:35.442Z,27.40
2023-04-01T09:11:35.438Z,26.04
2023-04-01T09:12:35.426Z,25.61
2023-04-01T09:13:35.448Z,25.00
2023-04-01T09:14:35.395Z,25.54
2023-04-01T09:15:35.734Z,28.33
2023-04-01T09:16:35.425Z,34.56
2023-04-01T09:17:35.402Z,39.08
2023-04-01T09:18:35.374Z,45.12
2023-04-01T09:19:35.390Z,46.40
2023-04-01T09:20:35.391Z,49.74
2023-04-01T09:21:35.380Z,49.16
2023-04-01T09:22:35.384Z,50.01
2023-04-01T09:23:35.336Z,51.15
2023-04-01T09:24:35.429Z,51.73
2023-04-01T09:25:35.752Z,46.70
2023-04-01T09:26:35.343Z,42.45
2023-04-01T09:27:35.320Z,40.73
2023-04-01T09:28:35.324Z,39.42
2023-04-01T09:29:35.310Z,37.88
2023-04-01T09:30:35.314Z,37.92
2023-04-01T09:31:35.368Z,36.35
2023-04-01T09:32:35.374Z,31.20
2023-04-01T09:33:35.314Z,25.00
2023-04-01T09:34:35.316Z,26.92
2023-04-01T09:35:35.562Z,31.98
2023-04-01T09:36:35.278Z,35.91
2023-04-01T09:37:35.273Z,25.00
2023-04-01T09:38:35.291Z,25.36
2023-04-01T09:39:35.280Z,26.01
2023-04-01T09:40:35.263Z,25.11
2023-04-01T09:41:35.329Z,25.38
2023-04-01T09:42:35.277Z,25.77
2023-04-01T09:43:35.286Z,25.69
2023-04-01T09:44:35.227Z,22.97
2023-04-01T09:45:35.223Z,27.38
2023-04-01T09:46:35.265Z,25.90
2023-04-01T09:47:35.293Z,26.34
2023-04-01T09:48:35.290Z,31.44
2023-04-01T09:49:35.319Z,41.84
2023-04-01T09:50:35.346Z,45.12
2023-04-01T09:51:35.380Z,53.30
2023-04-01T09:52:35.362Z,56.02
2023-04-01T09:53:35.399Z,51.51
2023-04-01T09:54:35.400Z,49.34
2023-04-01T09:55:35.575Z,41.64
2023-04-01T09:56:35.461Z,31.48
2023-04-01T09:57:35.582Z,27.58
2023-04-01T09:58:35.518Z,26.40
2023-04-01T09:59:36.529Z,26.85
2023-04-01T10:00:35.491Z,28.32
2023-04-01T10:01:35.533Z,31.20
2023-04-01T10:02:35.554Z,41.84
2023-04-01T10:03:35.508Z,54.38
2023-04-01T10:04:35.467Z,60.45
2023-04-01T10:05:35.776Z,58.96
2023-04-01T10:06:35.477Z,55.71
2023-04-01T10:07:35.468Z,46.79
2023-04-01T10:08:35.451Z,49.32
2023-04-01T10:09:35.474Z,45.90
2023-04-01T10:10:35.428Z,42.90
2023-04-01T10:11:35.441Z,41.93
2023-04-01T10:12:35.403Z,42.67
2023-04-01T10:13:35.418Z,42.25
2023-04-01T10:14:35.376Z,41.48
2023-04-01T10:15:35.694Z,32.29
2023-04-01T10:16:35.473Z,25.00
2023-04-01T10:17:35.468Z,26.52
2023-04-01T10:18:35.382Z,30.66
2023-04-01T10:19:35.446Z,28.21
2023-04-01T10:20:35.482Z,25.00
2023-04-01T10:21:35.463Z,28.46
2023-04-01T10:22:35.480Z,31.22
2023-04-01T10:23:35.514Z,32.61
2023-04-01T10:24:35.501Z,35.25
2023-04-01T10:25:35.770Z,35.26
2023-04-01T10:26:35.555Z,35.57
2023-04-01T10:27:35.569Z,34.82
2023-04-01T10:28:35.551Z,33.25
2023-04-01T10:29:35.581Z,31.83
2023-04-01T10:30:35.633Z,35.80
2023-04-01T10:31:35.629Z,33.98
2023-04-01T10:32:35.650Z,33.63
2023-04-01T10:33:35.664Z,39.25
2023-04-01T10:34:35.634Z,41.59
2023-04-01T10:35:36.081Z,39.99
2023-04-01T10:36:35.669Z,34.18
2023-04-01T10:37:35.710Z,47.91
2023-04-01T10:38:35.744Z,36.67
2023-04-01T10:39:35.753Z,30.77
2023-04-01T10:40:35.869Z,28.78
2023-04-01T10:41:35.731Z,28.03
2023-04-01T10:42:35.777Z,28.25
2023-04-01T10:43:35.772Z,32.93
2023-04-01T10:44:35.800Z,25.96
2023-04-01T10:45:36.228Z,25.74
2023-04-01T10:46:35.895Z,25.59
2023-04-01T10:47:35.876Z,28.21
2023-04-01T10:48:35.849Z,31.25
2023-04-01T10:49:35.860Z,29.75
2023-04-01T10:50:35.868Z,31.49
2023-04-01T10:51:35.903Z,34.36
2023-04-01T10:52:35.912Z,38.96
2023-04-01T10:53:35.899Z,44.86
2023-04-01T10:54:35.930Z,42.47
2023-04-01T10:55:36.212Z,38.21
2023-04-01T10:56:35.946Z,31.34
2023-04-01T10:57:36.233Z,28.35
2023-04-01T10:58:35.950Z,30.06
2023-04-01T10:59:35.971Z,32.82
2023-04-01T11:00:36.002Z,30.67
2023-04-01T11:01:36.013Z,28.04
2023-04-01T11:02:36.097Z,29.60
2023-04-01T11:03:36.160Z,27.63
2023-04-01T11:04:36.029Z,25.00
2023-04-01T11:05:36.223Z,25.99
2023-04-01T11:06:36.037Z,27.80
2023-04-01T11:07:36.066Z,25.87
2023-04-01T11:08:36.087Z,26.69
2023-04-01T11:09:36.067Z,31.56
2023-04-01T11:10:36.082Z,28.26
2023-04-01T11:11:36.089Z,28.97
2023-04-01T11:12:36.103Z,38.71
2023-04-01T11:13:36.080Z,36.89
2023-04-01T11:14:36.091Z,43.53
2023-04-01T11:15:36.418Z,55.47
2023-04-01T11:16:36.301Z,62.30
2023-04-01T11:17:36.176Z,71.07
2023-04-01T11:18:36.174Z,74.94
2023-04-01T11:19:36.130Z,75.35
2023-04-01T11:20:36.142Z,80.41
2023-04-01T11:21:36.100Z,60.58
2023-04-01T11:22:36.121Z,55.15
2023-04-01T11:23:36.134Z,46.80
2023-04-01T11:24:36.099Z,48.80
2023-04-01T11:25:36.112Z,50.67
2023-04-01T11:26:36.169Z,51.04
2023-04-01T11:27:38.917Z,42.45
2023-04-01T11:28:36.105Z,44.36
2023-04-01T11:29:37.451Z,38.00
2023-04-01T11:30:36.075Z,38.23
2023-04-01T11:31:36.083Z,31.03
2023-04-01T11:32:36.116Z,26.74
2023-04-01T11:33:36.065Z,30.31
2023-04-01T11:34:36.038Z,24.63
2023-04-01T11:35:36.275Z,27.83
2023-04-01T11:36:36.064Z,25.99
2023-04-01T11:37:36.032Z,25.00
2023-04-01T11:38:36.657Z,29.20
2023-04-01T11:39:36.025Z,27.11
2023-04-01T11:40:36.036Z,26.17
2023-04-01T11:41:36.026Z,32.17
2023-04-01T11:42:36.022Z,33.72
2023-04-01T11:43:36.023Z,31.43
2023-04-01T11:44:35.995Z,30.41
2023-04-01T11:45:36.064Z,33.98
2023-04-01T11:46:36.029Z,30.18
2023-04-01T11:47:35.996Z,29.43
2023-04-01T11:48:35.973Z,28.57
2023-04-01T11:49:35.955Z,32.46
2023-04-01T11:50:35.967Z,29.82
2023-04-01T11:51:35.974Z,33.93
2023-04-01T11:52:35.987Z,31.45
2023-04-01T11:53:35.935Z,37.18
2023-04-01T11:54:35.923Z,36.15
2023-04-01T11:55:36.120Z,41.62
2023-04-01T11:56:35.933Z,44.12
2023-04-01T11:57:35.956Z,43.57
2023-04-01T11:58:35.913Z,40.51
2023-04-01T11:59:35.936Z,31.91
2023-04-01T12:00:35.901Z,33.97
2023-04-01T12:01:35.923Z,32.36
2023-04-01T12:02:35.954Z,30.65
2023-04-01T12:03:36.150Z,40.33
2023-04-01T12:04:35.942Z,56.45
2023-04-01T12:05:36.184Z,54.29
2023-04-01T12:06:35.871Z,49.72
2023-04-01T12:07:35.893Z,41.79
2023-04-01T12:08:35.836Z,38.90
2023-04-01T12:09:35.848Z,32.20
2023-04-01T12:10:35.837Z,32.30
2023-04-01T12:11:35.834Z,34.03
2023-04-01T12:12:35.821Z,35.91
2023-04-01T12:13:35.836Z,32.28
2023-04-01T12:14:35.812Z,35.79
2023-04-01T12:15:35.985Z,33.25
2023-04-01T12:16:35.833Z,30.45
2023-04-01T12:17:35.859Z,30.45
2023-04-01T12:18:35.782Z,32.20
2023-04-01T12:19:35.778Z,32.41
2023-04-01T12:20:35.832Z,31.80
2023-04-01T12:21:35.780Z,33.04
2023-04-01T12:22:35.766Z,33.19
2023-04-01T12:23:35.785Z,28.67
2023-04-01T12:24:35.757Z,35.57
2023-04-01T12:25:35.955Z,27.49
2023-04-01T12:26:35.754Z,28.57
2023-04-01T12:27:35.737Z,32.72
2023-04-01T12:28:35.727Z,25.94
2023-04-01T12:29:35.715Z,28.63
2023-04-01T12:30:35.759Z,28.12
2023-04-01T12:31:35.728Z,25.26
2023-04-01T12:32:35.766Z,27.79
2023-04-01T12:33:37.943Z,29.79
2023-04-01T12:34:35.733Z,25.37
2023-04-01T12:35:35.880Z,26.01
2023-04-01T12:36:35.750Z,25.00
2023-04-01T12:37:35.687Z,27.54
2023-04-01T12:38:35.681Z,27.13
2023-04-01T12:39:35.697Z,30.18
2023-04-01T12:40:35.873Z,28.21
2023-04-01T12:41:35.675Z,32.33
2023-04-01T12:42:35.688Z,32.01
2023-04-01T12:43:35.653Z,29.40
2023-04-01T12:44:36.160Z,30.37
2023-04-01T12:45:35.896Z,32.19
2023-04-01T12:46:35.643Z,32.61
2023-04-01T12:47:35.668Z,27.20
2023-04-01T12:48:35.635Z,25.42
2023-04-01T12:49:35.639Z,26.61
2023-04-01T12:50:35.615Z,27.03
2023-04-01T12:51:35.609Z,26.37
2023-04-01T12:52:35.609Z,29.26